Time;durP1;ratioP1;P1;durP2;ratioP2;P2;SDS_P1;SDS_P2;PMS_P1;PMS_P2;Temp;Humidity;BMP_temperature;BMP_pressure;BME280_temperature;BME280_humidity;BME280_pressure;Samples;Min_cycle;Max_cycle;Signal;HPM_P1;HPM_P2
2023/06/25 00:00:28;;;;;;;6.70;4.82;;;;;;;;;;5026853;28;20486;-72
2023/06/25 00:02:54;;;;;;;7.35;5.10;;;;;;;;;;5030016;28;20029;-72
2023/06/25 00:05:21;;;;;;;9.18;5.70;;;;;;;;;;5030557;28;20533;-72
2023/06/25 00:07:47;;;;;;;9.68;5.88;;;;;;;;;;5033105;28;20033;-72
2023/06/25 00:10:13;;;;;;;15.55;6.13;;;;;;;;;;5028655;28;20044;-72
2023/06/25 00:12:39;;;;;;;7.85;5.68;;;;;;;;;;5029760;28;20040;-72
2023/06/25 00:15:05;;;;;;;7.82;5.75;;;;;;;;;;5024704;28;20498;-72
2023/06/25 00:17:31;;;;;;;7.25;6.22;;;;;;;;;;5032146;28;20122;-72
2023/06/25 00:19:59;;;;;;;9.77;6.35;;;;;;;;;;5030201;28;20083;-71
2023/06/25 00:22:25;;;;;;;8.02;6.30;;;;;;;;;;5059218;28;20029;-72
2023/06/25 00:24:51;;;;;;;10.50;6.30;;;;;;;;;;5031326;28;20387;-71
2023/06/25 00:27:17;;;;;;;9.90;6.15;;;;;;;;;;5031137;28;20091;-72
2023/06/25 00:29:43;;;;;;;9.68;6.63;;;;;;;;;;5032569;28;20034;-72
2023/06/25 00:32:09;;;;;;;10.18;6.60;;;;;;;;;;5028958;28;20124;-72
2023/06/25 00:34:41;;;;;;;9.52;6.75;;;;;;;;;;5026554;28;20053;-72
2023/06/25 00:37:16;;;;;;;8.73;6.20;;;;;;;;;;5030312;28;20642;-73
2023/06/25 00:39:46;;;;;;;8.98;6.72;;;;;;;;;;5023553;28;20067;-73
2023/06/25 00:42:12;;;;;;;12.02;6.35;;;;;;;;;;5061373;28;20049;-72
2023/06/25 00:44:40;;;;;;;9.10;6.63;;;;;;;;;;5032684;28;20105;-73
2023/06/25 00:47:16;;;;;;;12.73;6.45;;;;;;;;;;5025208;28;20029;-73
2023/06/25 00:49:45;;;;;;;8.32;6.53;;;;;;;;;;5021141;28;20033;-73
2023/06/25 00:52:13;;;;;;;9.25;6.85;;;;;;;;;;5029413;28;20053;-73
2023/06/25 00:54:39;;;;;;;10.98;7.03;;;;;;;;;;5030695;28;20033;-73
2023/06/25 00:57:08;;;;;;;10.60;6.95;;;;;;;;;;5025083;28;20042;-74
2023/06/25 00:59:35;;;;;;;11.02;6.80;;;;;;;;;;5060364;28;20041;-73
2023/06/25 01:02:06;;;;;;;13.73;7.78;;;;;;;;;;5063112;28;20049;-73
2023/06/25 01:04:36;;;;;;;9.10;7.37;;;;;;;;;;5032179;28;20064;-73
2023/06/25 01:07:04;;;;;;;10.55;7.03;;;;;;;;;;5027984;28;20022;-73
2023/06/25 01:09:32;;;;;;;11.27;7.43;;;;;;;;;;5029478;28;20029;-73
2023/06/25 01:12:02;;;;;;;13.13;7.30;;;;;;;;;;5027870;28;20108;-73
2023/06/25 01:14:28;;;;;;;8.73;6.78;;;;;;;;;;5029245;28;20390;-73
2023/06/25 01:16:55;;;;;;;10.43;7.88;;;;;;;;;;5024458;28;20053;-73
2023/06/25 01:19:29;;;;;;;10.05;7.80;;;;;;;;;;5012067;28;20041;-73
2023/06/25 01:22:02;;;;;;;10.73;7.47;;;;;;;;;;5024337;28;20073;-73
2023/06/25 01:24:29;;;;;;;8.80;6.63;;;;;;;;;;5030565;28;20112;-73
2023/06/25 01:26:56;;;;;;;11.05;7.90;;;;;;;;;;5029705;28;20034;-73
2023/06/25 01:29:22;;;;;;;9.75;8.07;;;;;;;;;;5029841;28;20041;-73
2023/06/25 01:31:51;;;;;;;15.65;8.38;;;;;;;;;;5030827;28;20033;-73
2023/06/25 01:34:21;;;;;;;10.80;7.10;;;;;;;;;;5029353;28;20064;-73
2023/06/25 01:36:50;;;;;;;10.55;6.55;;;;;;;;;;5031140;28;20036;-73
2023/06/25 01:39:19;;;;;;;10.52;7.85;;;;;;;;;;5025970;28;20096;-73
2023/06/25 01:41:46;;;;;;;10.68;7.05;;;;;;;;;;5029585;28;20429;-73
2023/06/25 01:44:16;;;;;;;12.07;8.07;;;;;;;;;;5026958;28;20037;-73
2023/06/25 01:46:42;;;;;;;10.25;7.55;;;;;;;;;;5030009;28;20478;-73
2023/06/25 01:49:08;;;;;;;8.40;6.85;;;;;;;;;;5028259;28;20038;-73
2023/06/25 01:51:34;;;;;;;8.50;7.10;;;;;;;;;;5030417;28;20037;-73
2023/06/25 01:54:00;;;;;;;11.80;7.05;;;;;;;;;;5022815;28;20069;-73
2023/06/25 01:56:26;;;;;;;11.13;8.02;;;;;;;;;;5030328;28;20490;-73
2023/06/25 01:58:53;;;;;;;8.32;7.38;;;;;;;;;;5026781;28;20029;-73
2023/06/25 02:01:20;;;;;;;9.45;6.70;;;;;;;;;;5030423;28;20029;-73
2023/06/25 02:03:46;;;;;;;8.50;7.10;;;;;;;;;;5059401;28;20167;-73
2023/06/25 02:06:12;;;;;;;11.27;7.88;;;;;;;;;;5030275;28;20061;-73
2023/06/25 02:08:38;;;;;;;9.88;6.97;;;;;;;;;;5056774;28;20038;-73
2023/06/25 02:11:06;;;;;;;12.20;8.40;;;;;;;;;;5024599;28;20029;-73
2023/06/25 02:13:33;;;;;;;16.67;8.60;;;;;;;;;;5027157;28;20032;-72
2023/06/25 02:15:59;;;;;;;14.25;8.27;;;;;;;;;;5029211;28;20029;-72
2023/06/25 02:18:25;;;;;;;11.43;8.35;;;;;;;;;;5030463;28;20065;-73
2023/06/25 02:20:51;;;;;;;14.63;8.77;;;;;;;;;;5021226;28;20030;-73
2023/06/25 02:23:17;;;;;;;14.38;9.77;;;;;;;;;;5022023;28;20040;-73
2023/06/25 02:25:43;;;;;;;10.65;8.57;;;;;;;;;;5025846;28;20545;-73
2023/06/25 02:28:09;;;;;;;12.35;8.68;;;;;;;;;;5022623;28;20134;-73
2023/06/25 02:30:35;;;;;;;12.75;9.23;;;;;;;;;;5028959;28;20026;-73
2023/06/25 02:33:01;;;;;;;10.80;8.65;;;;;;;;;;5026444;28;20044;-74
2023/06/25 02:35:27;;;;;;;9.85;8.65;;;;;;;;;;5026634;28;20069;-74
2023/06/25 02:37:53;;;;;;;12.98;8.57;;;;;;;;;;5027988;28;20030;-74
2023/06/25 02:40:19;;;;;;;12.73;9.35;;;;;;;;;;5028386;28;20022;-73
2023/06/25 02:42:46;;;;;;;13.63;9.45;;;;;;;;;;5029025;28;20037;-73
2023/06/25 02:45:12;;;;;;;10.70;9.15;;;;;;;;;;5025228;28;20498;-72
2023/06/25 02:47:38;;;;;;;12.75;9.23;;;;;;;;;;5021008;28;20615;-76
2023/06/25 02:50:04;;;;;;;13.18;9.98;;;;;;;;;;5020494;28;20049;-76
2023/06/25 02:52:30;;;;;;;13.68;9.07;;;;;;;;;;5021792;28;20117;-81
2023/06/25 02:54:56;;;;;;;11.20;9.57;;;;;;;;;;5020413;28;20065;-78
2023/06/25 02:57:29;;;;;;;15.25;9.07;;;;;;;;;;5020987;28;20038;-73
2023/06/25 02:59:55;;;;;;;20.75;15.68;;;;;;;;;;5024810;28;20065;-76
2023/06/25 03:02:21;;;;;;;20.15;15.00;;;;;;;;;;5027613;28;20064;-75
2023/06/25 03:04:47;;;;;;;15.63;11.27;;;;;;;;;;5023408;28;20049;-74
2023/06/25 03:07:13;;;;;;;11.50;9.48;;;;;;;;;;5024048;28;20029;-72
2023/06/25 03:09:39;;;;;;;11.90;10.23;;;;;;;;;;5029164;28;20529;-73
2023/06/25 03:12:05;;;;;;;14.35;9.35;;;;;;;;;;5045853;28;20055;-76
2023/06/25 03:14:31;;;;;;;12.70;9.60;;;;;;;;;;5023615;28;20046;-76
2023/06/25 03:16:57;;;;;;;13.13;9.27;;;;;;;;;;5026936;28;20026;-75
2023/06/25 03:19:23;;;;;;;13.07;9.77;;;;;;;;;;5029259;28;20065;-75
2023/06/25 03:21:49;;;;;;;18.40;9.52;;;;;;;;;;5023216;28;20034;-72
2023/06/25 03:24:15;;;;;;;12.63;8.93;;;;;;;;;;5021758;28;20035;-71
2023/06/25 03:26:41;;;;;;;13.40;9.80;;;;;;;;;;5018271;28;20054;-74
2023/06/25 03:29:07;;;;;;;11.73;9.70;;;;;;;;;;5025563;28;20407;-74
2023/06/25 03:31:33;;;;;;;10.80;9.23;;;;;;;;;;5025779;28;20048;-75
2023/06/25 03:33:59;;;;;;;12.30;9.90;;;;;;;;;;5028926;28;20053;-75
2023/06/25 03:36:25;;;;;;;30.15;23.70;;;;;;;;;;5029897;28;20044;-78
2023/06/25 03:38:51;;;;;;;23.92;17.23;;;;;;;;;;5031387;28;20076;-79
2023/06/25 03:41:17;;;;;;;17.17;12.20;;;;;;;;;;5030059;28;20039;-81
2023/06/25 03:43:43;;;;;;;13.40;9.73;;;;;;;;;;5032317;28;20068;-73
2023/06/25 03:46:09;;;;;;;12.82;8.93;;;;;;;;;;5025091;28;20040;-72
2023/06/25 03:48:36;;;;;;;13.40;9.85;;;;;;;;;;5030895;28;20033;-73
2023/06/25 03:51:02;;;;;;;11.52;9.43;;;;;;;;;;5026844;28;20133;-73
2023/06/25 03:53:28;;;;;;;11.30;9.10;;;;;;;;;;5032755;28;20112;-73
2023/06/25 03:55:54;;;;;;;15.68;10.25;;;;;;;;;;5032613;28;20041;-73
2023/06/25 03:58:20;;;;;;;15.77;9.65;;;;;;;;;;5028493;28;20033;-73
2023/06/25 04:00:46;;;;;;;17.58;9.70;;;;;;;;;;5032801;28;20029;-74
2023/06/25 04:03:12;;;;;;;11.60;9.85;;;;;;;;;;5027512;28;20041;-74
2023/06/25 04:05:38;;;;;;;12.77;9.13;;;;;;;;;;5030745;28;20348;-73
2023/06/25 04:08:04;;;;;;;13.00;9.15;;;;;;;;;;5021875;28;20295;-73
2023/06/25 04:10:30;;;;;;;13.32;10.10;;;;;;;;;;5024999;28;20096;-73
2023/06/25 04:12:56;;;;;;;13.43;8.93;;;;;;;;;;5020952;28;20037;-76
2023/06/25 04:15:22;;;;;;;13.93;9.27;;;;;;;;;;5019031;28;20614;-75
2023/06/25 04:17:48;;;;;;;19.42;10.75;;;;;;;;;;5017902;28;20052;-74
2023/06/25 04:20:14;;;;;;;11.48;9.07;;;;;;;;;;5017852;28;20029;-75
2023/06/25 04:22:40;;;;;;;20.95;15.57;;;;;;;;;;5025824;28;20505;-73
2023/06/25 04:25:06;;;;;;;19.98;10.55;;;;;;;;;;5023337;28;20205;-81
2023/06/25 04:27:32;;;;;;;14.48;9.35;;;;;;;;;;5025244;28;20056;-80
2023/06/25 04:29:58;;;;;;;10.80;8.45;;;;;;;;;;5023025;28;20148;-75
2023/06/25 04:32:24;;;;;;;11.35;8.95;;;;;;;;;;5025701;28;20167;-79
2023/06/25 04:34:50;;;;;;;12.18;9.23;;;;;;;;;;5024901;28;20489;-78
2023/06/25 04:37:16;;;;;;;13.82;8.82;;;;;;;;;;5026549;28;20037;-80
2023/06/25 04:39:42;;;;;;;11.90;8.07;;;;;;;;;;5023417;28;20112;-79
2023/06/25 04:42:08;;;;;;;11.98;8.77;;;;;;;;;;5025037;28;20599;-76
2023/06/25 04:44:34;;;;;;;10.25;8.80;;;;;;;;;;5022011;28;20037;-77
2023/06/25 04:47:00;;;;;;;12.48;8.57;;;;;;;;;;5024992;28;20033;-76
2023/06/25 04:49:26;;;;;;;12.85;9.55;;;;;;;;;;5020784;28;20038;-74
2023/06/25 04:51:52;;;;;;;12.10;8.38;;;;;;;;;;5026005;28;20112;-75
2023/06/25 04:54:18;;;;;;;10.57;8.77;;;;;;;;;;5031457;28;20116;-74
2023/06/25 04:56:44;;;;;;;10.45;8.20;;;;;;;;;;5032781;28;20038;-75
2023/06/25 04:59:10;;;;;;;10.27;8.38;;;;;;;;;;5031079;28;20116;-75
2023/06/25 05:01:36;;;;;;;14.10;9.40;;;;;;;;;;5031708;28;20032;-75
2023/06/25 05:04:02;;;;;;;11.20;8.88;;;;;;;;;;5028709;28;20037;-75
2023/06/25 05:06:29;;;;;;;12.55;9.35;;;;;;;;;;5030130;28;20091;-75
2023/06/25 05:08:55;;;;;;;14.38;9.23;;;;;;;;;;5025535;28;20030;-75
2023/06/25 05:11:21;;;;;;;11.18;9.18;;;;;;;;;;5019513;28;20059;-75
2023/06/25 05:13:48;;;;;;;11.45;8.32;;;;;;;;;;5036765;28;20102;-74
2023/06/25 05:16:14;;;;;;;14.13;9.52;;;;;;;;;;5029489;28;20029;-74
2023/06/25 05:18:42;;;;;;;10.30;8.65;;;;;;;;;;5029114;28;20034;-74
2023/06/25 05:21:08;;;;;;;12.57;8.65;;;;;;;;;;5030180;28;20083;-74
2023/06/25 05:23:44;;;;;;;12.10;8.52;;;;;;;;;;5029274;28;20467;-74
2023/06/25 05:26:10;;;;;;;9.35;8.27;;;;;;;;;;5029022;28;20052;-74
2023/06/25 05:28:36;;;;;;;9.75;8.05;;;;;;;;;;5030199;28;20033;-75
2023/06/25 05:31:02;;;;;;;10.07;7.80;;;;;;;;;;5030176;28;20033;-75
2023/06/25 05:33:28;;;;;;;9.18;7.50;;;;;;;;;;5033434;28;20036;-74
2023/06/25 05:35:54;;;;;;;11.48;8.02;;;;;;;;;;5023425;28;20078;-75
2023/06/25 05:38:20;;;;;;;11.23;7.80;;;;;;;;;;5028047;28;20422;-75
2023/06/25 05:40:46;;;;;;;11.15;7.13;;;;;;;;;;5028663;28;20048;-74
2023/06/25 05:43:12;;;;;;;12.25;8.43;;;;;;;;;;5027472;28;20040;-74
2023/06/25 05:45:39;;;;;;;8.07;6.80;;;;;;;;;;5028250;28;20402;-75
2023/06/25 05:48:06;;;;;;;9.35;7.22;;;;;;;;;;5027148;28;20111;-74
2023/06/25 05:50:32;;;;;;;9.55;7.18;;;;;;;;;;5029141;28;20025;-74
2023/06/25 05:52:58;;;;;;;6.70;6.00;;;;;;;;;;5029349;28;20042;-74
2023/06/25 05:55:24;;;;;;;10.52;6.85;;;;;;;;;;5029729;28;20040;-75
2023/06/25 05:57:50;;;;;;;8.98;6.70;;;;;;;;;;5029741;28;20052;-75
2023/06/25 06:00:16;;;;;;;9.80;6.68;;;;;;;;;;5028828;28;20033;-75
2023/06/25 06:02:42;;;;;;;10.82;6.22;;;;;;;;;;5030440;28;20044;-75
2023/06/25 06:05:09;;;;;;;9.00;7.18;;;;;;;;;;5031028;28;20441;-75
2023/06/25 06:07:35;;;;;;;9.35;6.32;;;;;;;;;;5027947;28;20029;-74
2023/06/25 06:10:01;;;;;;;11.27;6.60;;;;;;;;;;5029926;28;20034;-75
2023/06/25 06:12:27;;;;;;;8.70;6.32;;;;;;;;;;5030840;28;20451;-75
2023/06/25 06:14:53;;;;;;;9.27;6.22;;;;;;;;;;5029180;28;20041;-74
2023/06/25 06:17:19;;;;;;;8.50;6.65;;;;;;;;;;5028328;28;20025;-74
2023/06/25 06:19:45;;;;;;;8.50;6.90;;;;;;;;;;5028210;28;20048;-73
2023/06/25 06:22:13;;;;;;;12.23;6.90;;;;;;;;;;5029780;28;20032;-74
2023/06/25 06:24:39;;;;;;;11.55;8.05;;;;;;;;;;5030035;28;20116;-75
2023/06/25 06:27:05;;;;;;;10.52;6.75;;;;;;;;;;5030835;28;20038;-75
2023/06/25 06:29:31;;;;;;;15.52;8.00;;;;;;;;;;5027392;28;20402;-75
2023/06/25 06:31:57;;;;;;;9.35;7.28;;;;;;;;;;5023622;28;20038;-75
2023/06/25 06:34:23;;;;;;;11.25;7.28;;;;;;;;;;5023815;28;20149;-75
2023/06/25 06:36:49;;;;;;;9.70;6.75;;;;;;;;;;5018117;28;20034;-74
2023/06/25 06:39:15;;;;;;;8.52;7.57;;;;;;;;;;5021954;28;20036;-74
2023/06/25 06:41:42;;;;;;;8.35;6.95;;;;;;;;;;5028833;28;20366;-75
2023/06/25 06:44:16;;;;;;;10.75;7.38;;;;;;;;;;5028135;28;20072;-75
2023/06/25 06:46:42;;;;;;;11.43;7.45;;;;;;;;;;5022640;28;20108;-75
2023/06/25 06:49:09;;;;;;;8.93;6.78;;;;;;;;;;5027133;28;20029;-75
2023/06/25 06:51:36;;;;;;;8.07;6.85;;;;;;;;;;5029869;28;20104;-74
2023/06/25 06:54:02;;;;;;;9.63;6.95;;;;;;;;;;5029045;28;20041;-74
2023/06/25 06:56:28;;;;;;;9.77;6.45;;;;;;;;;;5033396;28;20029;-75
2023/06/25 06:58:54;;;;;;;10.27;5.68;;;;;;;;;;5029188;28;20033;-75
2023/06/25 07:01:20;;;;;;;7.88;6.00;;;;;;;;;;5029097;28;20444;-75
2023/06/25 07:03:46;;;;;;;7.82;6.68;;;;;;;;;;5030365;28;20052;-75
2023/06/25 07:06:12;;;;;;;6.38;5.78;;;;;;;;;;5025658;28;20068;-75
2023/06/25 07:08:38;;;;;;;8.23;6.55;;;;;;;;;;5027612;28;20038;-75
2023/06/25 07:11:04;;;;;;;10.57;6.43;;;;;;;;;;5029671;28;20025;-75
2023/06/25 07:13:30;;;;;;;12.10;7.03;;;;;;;;;;5030516;28;20040;-75
2023/06/25 07:15:56;;;;;;;6.60;5.88;;;;;;;;;;5031134;28;20025;-75
2023/06/25 07:18:22;;;;;;;6.70;6.03;;;;;;;;;;5032176;28;20030;-75
2023/06/25 07:20:49;;;;;;;8.43;6.82;;;;;;;;;;5033852;28;20513;-75
2023/06/25 07:23:15;;;;;;;14.75;7.07;;;;;;;;;;5033056;28;20029;-75
2023/06/25 07:25:41;;;;;;;7.85;6.97;;;;;;;;;;5053697;28;20105;-74
2023/06/25 07:28:09;;;;;;;7.75;6.60;;;;;;;;;;5027769;28;20090;-75
2023/06/25 07:30:35;;;;;;;6.50;5.78;;;;;;;;;;5032349;28;20111;-75
2023/06/25 07:33:03;;;;;;;7.72;6.18;;;;;;;;;;5031438;28;20479;-75
2023/06/25 07:35:29;;;;;;;10.27;6.65;;;;;;;;;;5033400;28;20080;-75
2023/06/25 07:37:55;;;;;;;9.15;6.95;;;;;;;;;;5033352;28;20032;-75
2023/06/25 07:40:21;;;;;;;8.60;6.70;;;;;;;;;;5029347;28;20120;-75
2023/06/25 07:42:47;;;;;;;7.13;6.05;;;;;;;;;;5027164;28;20105;-75
2023/06/25 07:45:13;;;;;;;9.38;5.88;;;;;;;;;;5014881;28;20116;-75
2023/06/25 07:47:39;;;;;;;6.55;5.88;;;;;;;;;;5031899;28;20039;-75
2023/06/25 07:50:05;;;;;;;8.55;6.07;;;;;;;;;;5033789;28;20025;-75
2023/06/25 07:52:31;;;;;;;7.13;5.88;;;;;;;;;;5032098;28;20040;-75
2023/06/25 07:54:57;;;;;;;6.15;5.63;;;;;;;;;;5033172;28;20037;-75
2023/06/25 07:57:23;;;;;;;6.47;5.82;;;;;;;;;;5030634;28;20033;-75
2023/06/25 07:59:49;;;;;;;8.32;6.15;;;;;;;;;;5033133;28;20037;-75
2023/06/25 08:02:15;;;;;;;7.00;5.25;;;;;;;;;;5031994;28;20025;-75
2023/06/25 08:04:41;;;;;;;6.85;5.03;;;;;;;;;;5029654;28;20399;-75
2023/06/25 08:07:08;;;;;;;6.20;4.95;;;;;;;;;;5025222;28;20029;-75
2023/06/25 08:09:34;;;;;;;6.95;4.88;;;;;;;;;;5030631;28;20423;-75
2023/06/25 08:12:00;;;;;;;6.43;5.28;;;;;;;;;;5031084;28;20057;-75
2023/06/25 08:14:26;;;;;;;8.82;4.60;;;;;;;;;;5029376;28;20398;-75
2023/06/25 08:16:52;;;;;;;4.88;4.38;;;;;;;;;;5032089;28;20041;-75
2023/06/25 08:19:18;;;;;;;4.93;4.47;;;;;;;;;;5032715;28;20018;-75
2023/06/25 08:21:45;;;;;;;5.85;4.38;;;;;;;;;;5031606;28;20034;-75
2023/06/25 08:24:10;;;;;;;6.05;4.47;;;;;;;;;;5030863;28;20033;-75
2023/06/25 08:26:36;;;;;;;6.50;4.28;;;;;;;;;;5031764;28;20883;-75
2023/06/25 08:29:04;;;;;;;7.20;4.18;;;;;;;;;;5027819;28;20050;-75
2023/06/25 08:31:30;;;;;;;5.00;4.50;;;;;;;;;;5035476;28;20022;-75
2023/06/25 08:33:56;;;;;;;7.45;4.75;;;;;;;;;;5059802;28;20061;-75
2023/06/25 08:36:22;;;;;;;9.98;4.25;;;;;;;;;;5032482;28;20037;-75
2023/06/25 08:38:48;;;;;;;6.63;3.75;;;;;;;;;;5022891;28;20056;-75
2023/06/25 08:41:14;;;;;;;5.78;3.80;;;;;;;;;;5027694;28;20029;-75
2023/06/25 08:43:40;;;;;;;5.28;3.53;;;;;;;;;;5031581;28;20033;-75
2023/06/25 08:46:08;;;;;;;5.10;3.30;;;;;;;;;;5032562;28;20033;-75
2023/06/25 08:48:36;;;;;;;3.83;2.80;;;;;;;;;;5029234;28;20021;-75
2023/06/25 08:51:06;;;;;;;4.30;3.75;;;;;;;;;;5032447;28;20042;-75
2023/06/25 08:53:33;;;;;;;3.63;2.73;;;;;;;;;;5031248;28;20033;-75
2023/06/25 08:56:00;;;;;;;4.03;3.45;;;;;;;;;;5029144;28;20034;-76
2023/06/25 08:58:26;;;;;;;5.72;3.70;;;;;;;;;;5030769;28;20029;-76
2023/06/25 09:00:52;;;;;;;3.30;3.00;;;;;;;;;;5032122;28;20087;-76
2023/06/25 09:03:18;;;;;;;4.13;3.38;;;;;;;;;;5031534;28;20320;-76
2023/06/25 09:05:54;;;;;;;4.50;2.85;;;;;;;;;;5027405;28;20136;-76
2023/06/25 09:08:21;;;;;;;3.47;3.13;;;;;;;;;;5029189;28;20414;-76
2023/06/25 09:10:53;;;;;;;7.70;3.30;;;;;;;;;;5028434;28;20029;-76
2023/06/25 09:13:24;;;;;;;2.92;2.50;;;;;;;;;;5029972;28;20398;-75
2023/06/25 09:15:50;;;;;;;2.90;2.60;;;;;;;;;;5032070;28;20553;-75
2023/06/25 09:18:20;;;;;;;3.10;2.53;;;;;;;;;;5031693;28;20034;-75
2023/06/25 09:20:46;;;;;;;2.80;2.60;;;;;;;;;;5028188;28;20124;-75
2023/06/25 09:23:18;;;;;;;3.85;2.95;;;;;;;;;;5027730;28;20037;-75
2023/06/25 09:25:45;;;;;;;4.10;2.83;;;;;;;;;;5031642;28;20029;-75
2023/06/25 09:28:11;;;;;;;3.30;2.70;;;;;;;;;;5030001;28;20025;-76
2023/06/25 09:30:38;;;;;;;3.40;2.80;;;;;;;;;;5030408;28;20060;-75
2023/06/25 09:33:05;;;;;;;6.03;3.20;;;;;;;;;;5030994;28;20367;-75
2023/06/25 09:35:34;;;;;;;7.43;2.60;;;;;;;;;;5027816;28;20533;-75
2023/06/25 09:38:01;;;;;;;4.63;2.40;;;;;;;;;;5030789;28;20026;-75
2023/06/25 09:40:27;;;;;;;4.55;2.72;;;;;;;;;;5031333;28;20045;-75
2023/06/25 09:42:53;;;;;;;4.22;3.63;;;;;;;;;;5031467;28;20030;-75
2023/06/25 09:45:20;;;;;;;7.72;3.20;;;;;;;;;;5028429;28;20391;-74
2023/06/25 09:47:47;;;;;;;6.70;2.83;;;;;;;;;;5029140;28;20021;-75
2023/06/25 09:50:17;;;;;;;6.88;2.78;;;;;;;;;;5031182;28;20333;-75
2023/06/25 09:53:07;;;;;;;4.22;3.03;;;;;;;;;;5030085;28;20082;-75
2023/06/25 09:55:35;;;;;;;3.33;2.78;;;;;;;;;;5026503;28;20136;-75
2023/06/25 09:58:01;;;;;;;3.42;2.78;;;;;;;;;;5028527;28;20482;-75
2023/06/25 10:00:28;;;;;;;4.78;2.90;;;;;;;;;;5030969;28;20033;-75
2023/06/25 10:02:54;;;;;;;3.97;2.92;;;;;;;;;;5029699;28;20471;-75
2023/06/25 10:05:20;;;;;;;3.55;2.65;;;;;;;;;;5028470;28;20453;-75
2023/06/25 10:07:47;;;;;;;2.65;2.45;;;;;;;;;;5026204;28;20033;-75
2023/06/25 10:10:20;;;;;;;4.10;2.88;;;;;;;;;;5028010;28;20034;-75
2023/06/25 10:12:47;;;;;;;3.67;2.67;;;;;;;;;;5030491;28;20491;-75
2023/06/25 10:15:13;;;;;;;2.50;2.30;;;;;;;;;;5025544;28;20431;-75
2023/06/25 10:18:06;;;;;;;3.45;2.38;;;;;;;;;;5062501;28;20471;-75
2023/06/25 10:20:34;;;;;;;4.72;2.90;;;;;;;;;;5029147;28;20398;-74
2023/06/25 10:23:10;;;;;;;5.35;2.88;;;;;;;;;;5030558;28;20403;-75
2023/06/25 10:25:39;;;;;;;4.60;2.80;;;;;;;;;;5010058;28;20088;-74
2023/06/25 10:28:13;;;;;;;4.30;2.42;;;;;;;;;;5029112;28;20025;-75
2023/06/25 10:30:40;;;;;;;2.60;2.40;;;;;;;;;;5029470;28;20390;-75
2023/06/25 10:33:06;;;;;;;6.32;2.95;;;;;;;;;;5043287;28;20026;-75
2023/06/25 10:35:42;;;;;;;2.90;2.60;;;;;;;;;;5011709;28;20049;-74
2023/06/25 10:38:08;;;;;;;2.95;2.63;;;;;;;;;;5020515;28;20103;-74
2023/06/25 10:40:38;;;;;;;3.53;2.67;;;;;;;;;;5029223;28;20030;-74
2023/06/25 10:43:04;;;;;;;3.20;2.38;;;;;;;;;;5029714;28;20034;-74
2023/06/25 10:45:31;;;;;;;3.33;2.70;;;;;;;;;;5029897;28;20032;-74
2023/06/25 10:48:01;;;;;;;7.03;2.60;;;;;;;;;;5029104;28;20042;-74
2023/06/25 10:50:33;;;;;;;4.10;2.80;;;;;;;;;;5032263;28;20060;-75
2023/06/25 10:53:00;;;;;;;3.30;3.00;;;;;;;;;;5028269;28;20030;-74
2023/06/25 10:55:26;;;;;;;4.32;2.42;;;;;;;;;;5032046;28;20065;-75
2023/06/25 10:57:56;;;;;;;4.25;2.60;;;;;;;;;;5028696;28;20041;-75
2023/06/25 11:00:23;;;;;;;12.77;2.90;;;;;;;;;;5031570;28;20033;-75
2023/06/25 11:02:50;;;;;;;3.53;2.45;;;;;;;;;;5032640;28;20121;-75
2023/06/25 11:05:16;;;;;;;3.63;2.80;;;;;;;;;;5033166;28;20390;-75
2023/06/25 11:07:43;;;;;;;4.60;2.60;;;;;;;;;;5030951;28;21516;-74
2023/06/25 11:10:09;;;;;;;4.53;2.80;;;;;;;;;;5034285;28;20025;-75
2023/06/25 11:12:35;;;;;;;2.65;2.38;;;;;;;;;;5032916;28;20033;-74
2023/06/25 11:15:01;;;;;;;2.78;2.50;;;;;;;;;;5031880;28;20044;-74
2023/06/25 11:17:27;;;;;;;4.55;2.42;;;;;;;;;;5031720;28;20033;-74
2023/06/25 11:19:54;;;;;;;4.45;2.72;;;;;;;;;;5033840;28;20029;-74
2023/06/25 11:22:20;;;;;;;3.17;2.65;;;;;;;;;;5033192;28;20091;-74
2023/06/25 11:24:46;;;;;;;3.28;2.72;;;;;;;;;;5033750;28;20471;-74
2023/06/25 11:27:14;;;;;;;2.97;2.67;;;;;;;;;;5031537;28;20550;-74
2023/06/25 11:29:41;;;;;;;5.15;2.72;;;;;;;;;;5029564;28;20018;-74
2023/06/25 11:32:11;;;;;;;3.47;2.85;;;;;;;;;;5033721;28;20032;-74
2023/06/25 11:34:37;;;;;;;6.07;2.60;;;;;;;;;;5026213;28;20052;-74
2023/06/25 11:37:12;;;;;;;5.65;2.80;;;;;;;;;;5021216;28;20034;-74
2023/06/25 11:39:45;;;;;;;3.78;2.97;;;;;;;;;;5033410;28;20035;-74
2023/06/25 11:42:16;;;;;;;3.08;2.75;;;;;;;;;;5034457;28;20485;-74
2023/06/25 11:44:42;;;;;;;3.88;3.15;;;;;;;;;;5033542;28;20041;-74
2023/06/25 11:47:09;;;;;;;3.30;3.00;;;;;;;;;;5029572;28;20105;-74
2023/06/25 11:49:35;;;;;;;7.20;3.53;;;;;;;;;;5032959;28;20029;-74
2023/06/25 11:52:01;;;;;;;6.18;3.88;;;;;;;;;;5027097;28;20062;-74
2023/06/25 11:54:28;;;;;;;4.25;3.70;;;;;;;;;;5032785;28;20033;-74
2023/06/25 11:56:54;;;;;;;6.45;3.55;;;;;;;;;;5031853;28;20075;-74
2023/06/25 11:59:20;;;;;;;3.70;3.15;;;;;;;;;;5040636;28;20045;-74
2023/06/25 12:01:46;;;;;;;6.00;3.78;;;;;;;;;;5037575;28;20040;-75
2023/06/25 12:04:12;;;;;;;3.10;2.70;;;;;;;;;;5032558;28;20120;-74
2023/06/25 12:06:38;;;;;;;4.25;3.30;;;;;;;;;;5032924;28;20100;-75
2023/06/25 12:09:04;;;;;;;7.25;3.58;;;;;;;;;;5029414;28;20112;-75
2023/06/25 12:11:31;;;;;;;6.00;3.58;;;;;;;;;;5034097;28;20047;-74
2023/06/25 12:13:57;;;;;;;4.47;3.47;;;;;;;;;;5029009;28;20398;-74
2023/06/25 12:16:23;;;;;;;7.55;3.20;;;;;;;;;;5030583;28;20471;-75
2023/06/25 12:18:49;;;;;;;4.95;3.05;;;;;;;;;;5031028;28;20101;-75
2023/06/25 12:21:15;;;;;;;3.78;3.33;;;;;;;;;;5032364;28;20036;-74
2023/06/25 12:23:41;;;;;;;5.20;2.88;;;;;;;;;;5030125;28;20417;-74
2023/06/25 12:26:07;;;;;;;3.90;3.53;;;;;;;;;;5055686;28;20025;-74
2023/06/25 12:28:33;;;;;;;5.50;3.30;;;;;;;;;;5055972;28;20042;-74
2023/06/25 12:30:59;;;;;;;4.68;3.38;;;;;;;;;;5032516;28;20083;-75
2023/06/25 12:33:25;;;;;;;4.57;3.15;;;;;;;;;;5030093;28;20046;-75
2023/06/25 12:35:52;;;;;;;3.33;3.10;;;;;;;;;;5033387;28;20049;-74
2023/06/25 12:38:18;;;;;;;4.53;3.03;;;;;;;;;;5030247;28;20506;-75
2023/06/25 12:40:46;;;;;;;3.00;2.75;;;;;;;;;;5032499;28;20109;-75
2023/06/25 12:43:12;;;;;;;3.60;2.85;;;;;;;;;;5053797;28;20080;-75
2023/06/25 12:45:38;;;;;;;3.28;2.97;;;;;;;;;;5023760;28;20049;-72
2023/06/25 12:48:04;;;;;;;3.72;2.97;;;;;;;;;;5061702;28;20037;-85
2023/06/25 12:50:30;;;;;;;2.97;2.78;;;;;;;;;;5063612;28;20352;-87
2023/06/25 12:52:56;;;;;;;2.80;2.60;;;;;;;;;;5051454;28;20036;-86
2023/06/25 12:55:22;;;;;;;2.95;2.65;;;;;;;;;;5033801;28;20045;-83
2023/06/25 12:57:48;;;;;;;5.38;3.20;;;;;;;;;;5031243;28;20039;-83
2023/06/25 13:00:14;;;;;;;5.82;2.55;;;;;;;;;;5037005;28;20067;-79
2023/06/25 13:02:40;;;;;;;3.47;3.13;;;;;;;;;;5027596;28;20462;-80
2023/06/25 13:05:06;;;;;;;5.28;2.97;;;;;;;;;;5031243;28;20033;-78
2023/06/25 13:07:32;;;;;;;6.05;3.63;;;;;;;;;;5027585;28;20096;-80
2023/06/25 13:09:58;;;;;;;3.72;3.25;;;;;;;;;;5030861;28;20025;-74
2023/06/25 13:12:24;;;;;;;4.20;3.60;;;;;;;;;;5031502;28;20033;-71
2023/06/25 13:14:50;;;;;;;3.78;3.45;;;;;;;;;;5027298;28;20026;-71
2023/06/25 13:17:16;;;;;;;3.80;3.50;;;;;;;;;;5025976;28;20061;-74
2023/06/25 13:19:42;;;;;;;6.30;3.15;;;;;;;;;;5026641;28;20421;-78
2023/06/25 13:22:08;;;;;;;3.92;3.50;;;;;;;;;;5025303;28;20421;-79
2023/06/25 13:24:35;;;;;;;4.28;3.33;;;;;;;;;;5058290;28;20041;-72
2023/06/25 13:27:02;;;;;;;3.67;3.28;;;;;;;;;;5030711;28;20025;-72
2023/06/25 13:29:31;;;;;;;6.78;3.30;;;;;;;;;;5054854;28;20041;-71
2023/06/25 13:31:57;;;;;;;6.85;3.22;;;;;;;;;;5023983;28;20025;-71
2023/06/25 13:34:23;;;;;;;3.80;3.20;;;;;;;;;;5022257;28;20058;-71
2023/06/25 13:36:49;;;;;;;3.90;3.47;;;;;;;;;;5021481;28;20037;-72
2023/06/25 13:39:15;;;;;;;4.20;3.80;;;;;;;;;;5052680;28;20447;-72
2023/06/25 13:41:42;;;;;;;7.35;3.90;;;;;;;;;;5018115;28;20057;-72
2023/06/25 13:44:08;;;;;;;8.73;3.83;;;;;;;;;;5018884;28;20029;-72
2023/06/25 13:46:34;;;;;;;5.03;3.92;;;;;;;;;;5026224;28;20377;-73
2023/06/25 13:49:00;;;;;;;4.05;3.65;;;;;;;;;;5035193;28;20024;-73
2023/06/25 13:51:26;;;;;;;5.68;3.75;;;;;;;;;;5038538;28;20469;-73
2023/06/25 13:53:52;;;;;;;4.35;3.42;;;;;;;;;;5038071;28;20474;-73
2023/06/25 13:56:18;;;;;;;4.15;3.75;;;;;;;;;;5029398;28;20029;-72
2023/06/25 13:58:44;;;;;;;4.82;3.65;;;;;;;;;;5030636;28;20044;-73
2023/06/25 14:01:10;;;;;;;4.13;3.38;;;;;;;;;;5028376;28;20036;-73
2023/06/25 14:03:36;;;;;;;6.25;3.92;;;;;;;;;;5029051;28;20026;-73
2023/06/25 14:06:02;;;;;;;3.83;3.42;;;;;;;;;;5027262;28;20107;-73
2023/06/25 14:08:28;;;;;;;4.07;3.67;;;;;;;;;;5027716;28;20083;-73
2023/06/25 14:10:54;;;;;;;6.57;3.70;;;;;;;;;;5027042;28;20038;-73
2023/06/25 14:13:20;;;;;;;4.45;3.88;;;;;;;;;;5024657;28;20443;-74
2023/06/25 14:15:46;;;;;;;4.63;3.95;;;;;;;;;;5028356;28;20093;-73
2023/06/25 14:18:13;;;;;;;4.57;4.05;;;;;;;;;;5014488;28;20410;-73
2023/06/25 14:20:39;;;;;;;4.43;4.00;;;;;;;;;;5021042;28;20044;-73
2023/06/25 14:23:05;;;;;;;3.95;3.65;;;;;;;;;;5024234;28;20041;-73
2023/06/25 14:25:31;;;;;;;7.18;4.00;;;;;;;;;;5015138;28;20494;-73
2023/06/25 14:27:57;;;;;;;4.22;3.83;;;;;;;;;;5015639;28;20556;-73
2023/06/25 14:30:24;;;;;;;4.13;3.72;;;;;;;;;;5025705;28;20038;-73
2023/06/25 14:32:50;;;;;;;4.15;3.80;;;;;;;;;;5028387;28;20117;-73
2023/06/25 14:35:16;;;;;;;4.00;3.38;;;;;;;;;;5028278;28;20072;-74